sensor_id;sensor_type;location;lat;lon;timestamp;P1;durP1;ratioP1;P2;durP2;ratioP2
40917;SDS011;26644;50.248;19.032;2022-08-19T00:00:50;18.63;;;12.77;;
40917;SDS011;26644;50.248;19.032;2022-08-19T00:03:52;17.08;;;12.98;;
40917;SDS011;26644;50.248;19.032;2022-08-19T00:07:10;18.52;;;12.55;;
40917;SDS011;26644;50.248;19.032;2022-08-19T00:10:13;24.63;;;14.23;;
40917;SDS011;26644;50.248;19.032;2022-08-19T00:13:16;18.33;;;13.60;;
40917;SDS011;26644;50.248;19.032;2022-08-19T00:16:20;19.50;;;13.23;;
40917;SDS011;26644;50.248;19.032;2022-08-19T00:19:22;19.17;;;12.43;;
40917;SDS011;26644;50.248;19.032;2022-08-19T00:22:25;18.38;;;13.75;;
40917;SDS011;26644;50.248;19.032;2022-08-19T00:25:28;17.30;;;12.85;;
40917;SDS011;26644;50.248;19.032;2022-08-19T00:28:30;22.52;;;13.95;;
40917;SDS011;26644;50.248;19.032;2022-08-19T00:31:34;22.45;;;14.18;;
40917;SDS011;26644;50.248;19.032;2022-08-19T00:34:36;20.05;;;14.20;;
40917;SDS011;26644;50.248;19.032;2022-08-19T00:37:38;19.67;;;13.70;;
40917;SDS011;26644;50.248;19.032;2022-08-19T00:40:44;19.40;;;13.85;;
40917;SDS011;26644;50.248;19.032;2022-08-19T00:43:56;17.75;;;13.95;;
40917;SDS011;26644;50.248;19.032;2022-08-19T00:47:00;19.60;;;13.57;;
40917;SDS011;26644;50.248;19.032;2022-08-19T00:50:03;20.33;;;14.57;;
40917;SDS011;26644;50.248;19.032;2022-08-19T00:53:06;20.60;;;14.65;;
40917;SDS011;26644;50.248;19.032;2022-08-19T00:56:08;19.77;;;15.15;;
40917;SDS011;26644;50.248;19.032;2022-08-19T00:59:09;20.23;;;15.32;;
40917;SDS011;26644;50.248;19.032;2022-08-19T01:02:13;20.88;;;14.30;;
40917;SDS011;26644;50.248;19.032;2022-08-19T01:05:16;19.40;;;14.27;;
40917;SDS011;26644;50.248;19.032;2022-08-19T01:08:21;20.63;;;14.75;;
40917;SDS011;26644;50.248;19.032;2022-08-19T01:11:24;20.77;;;15.25;;
40917;SDS011;26644;50.248;19.032;2022-08-19T01:14:26;22.45;;;15.40;;
40917;SDS011;26644;50.248;19.032;2022-08-19T01:17:30;20.52;;;15.70;;
40917;SDS011;26644;50.248;19.032;2022-08-19T01:20:32;23.98;;;15.35;;
40917;SDS011;26644;50.248;19.032;2022-08-19T01:23:36;20.00;;;14.40;;
40917;SDS011;26644;50.248;19.032;2022-08-19T01:26:44;23.80;;;15.73;;
40917;SDS011;26644;50.248;19.032;2022-08-19T01:29:46;24.30;;;16.00;;
40917;SDS011;26644;50.248;19.032;2022-08-19T01:32:48;23.13;;;16.00;;
40917;SDS011;26644;50.248;19.032;2022-08-19T01:35:50;20.88;;;15.73;;
40917;SDS011;26644;50.248;19.032;2022-08-19T01:38:54;21.60;;;16.05;;
40917;SDS011;26644;50.248;19.032;2022-08-19T01:41:56;21.85;;;15.55;;
40917;SDS011;26644;50.248;19.032;2022-08-19T01:44:58;23.00;;;15.57;;
40917;SDS011;26644;50.248;19.032;2022-08-19T01:48:00;21.55;;;15.45;;
40917;SDS011;26644;50.248;19.032;2022-08-19T01:51:03;20.92;;;15.30;;
40917;SDS011;26644;50.248;19.032;2022-08-19T01:54:06;21.88;;;15.55;;
40917;SDS011;26644;50.248;19.032;2022-08-19T01:57:09;24.30;;;16.58;;
40917;SDS011;26644;50.248;19.032;2022-08-19T02:00:15;23.20;;;15.75;;
40917;SDS011;26644;50.248;19.032;2022-08-19T02:03:19;20.90;;;15.38;;
40917;SDS011;26644;50.248;19.032;2022-08-19T02:06:20;22.30;;;16.85;;
40917;SDS011;26644;50.248;19.032;2022-08-19T02:09:24;24.83;;;15.35;;
40917;SDS011;26644;50.248;19.032;2022-08-19T02:12:25;23.50;;;15.93;;
40917;SDS011;26644;50.248;19.032;2022-08-19T02:15:27;21.45;;;16.15;;
40917;SDS011;26644;50.248;19.032;2022-08-19T02:18:29;22.75;;;15.70;;
40917;SDS011;26644;50.248;19.032;2022-08-19T02:21:32;24.13;;;15.48;;
40917;SDS011;26644;50.248;19.032;2022-08-19T02:24:35;18.80;;;15.52;;
40917;SDS011;26644;50.248;19.032;2022-08-19T02:27:38;24.48;;;16.05;;
40917;SDS011;26644;50.248;19.032;2022-08-19T02:30:41;19.40;;;15.15;;
40917;SDS011;26644;50.248;19.032;2022-08-19T02:33:43;22.73;;;16.88;;
40917;SDS011;26644;50.248;19.032;2022-08-19T02:36:46;23.42;;;16.00;;
40917;SDS011;26644;50.248;19.032;2022-08-19T02:39:49;24.65;;;15.95;;
40917;SDS011;26644;50.248;19.032;2022-08-19T02:42:50;23.65;;;15.27;;
40917;SDS011;26644;50.248;19.032;2022-08-19T02:45:52;23.98;;;16.75;;
40917;SDS011;26644;50.248;19.032;2022-08-19T02:48:56;24.55;;;15.85;;
40917;SDS011;26644;50.248;19.032;2022-08-19T02:52:00;25.02;;;16.70;;
40917;SDS011;26644;50.248;19.032;2022-08-19T02:55:05;27.35;;;16.98;;
40917;SDS011;26644;50.248;19.032;2022-08-19T02:58:07;22.70;;;16.15;;
40917;SDS011;26644;50.248;19.032;2022-08-19T03:01:09;25.23;;;16.38;;
40917;SDS011;26644;50.248;19.032;2022-08-19T03:04:13;21.75;;;16.42;;
40917;SDS011;26644;50.248;19.032;2022-08-19T03:07:17;26.98;;;17.55;;
40917;SDS011;26644;50.248;19.032;2022-08-19T03:10:21;25.90;;;17.35;;
40917;SDS011;26644;50.248;19.032;2022-08-19T03:13:23;27.45;;;17.60;;
40917;SDS011;26644;50.248;19.032;2022-08-19T03:16:25;24.48;;;17.30;;
40917;SDS011;26644;50.248;19.032;2022-08-19T03:19:30;29.20;;;16.98;;
40917;SDS011;26644;50.248;19.032;2022-08-19T03:22:32;23.50;;;17.08;;
40917;SDS011;26644;50.248;19.032;2022-08-19T03:25:38;23.55;;;16.17;;
40917;SDS011;26644;50.248;19.032;2022-08-19T03:28:42;23.40;;;16.88;;
40917;SDS011;26644;50.248;19.032;2022-08-19T03:31:46;26.23;;;17.60;;
40917;SDS011;26644;50.248;19.032;2022-08-19T03:34:47;24.48;;;18.00;;
40917;SDS011;26644;50.248;19.032;2022-08-19T03:37:51;26.42;;;16.85;;
40917;SDS011;26644;50.248;19.032;2022-08-19T03:40:54;25.85;;;17.80;;
40917;SDS011;26644;50.248;19.032;2022-08-19T03:43:56;23.50;;;16.63;;
40917;SDS011;26644;50.248;19.032;2022-08-19T03:46:59;25.55;;;17.00;;
40917;SDS011;26644;50.248;19.032;2022-08-19T03:50:01;22.83;;;16.23;;
40917;SDS011;26644;50.248;19.032;2022-08-19T03:53:03;26.08;;;16.00;;
40917;SDS011;26644;50.248;19.032;2022-08-19T03:56:07;21.55;;;15.68;;
40917;SDS011;26644;50.248;19.032;2022-08-19T03:59:10;24.00;;;15.73;;
40917;SDS011;26644;50.248;19.032;2022-08-19T04:02:14;25.73;;;16.75;;
40917;SDS011;26644;50.248;19.032;2022-08-19T04:05:16;22.55;;;16.02;;
40917;SDS011;26644;50.248;19.032;2022-08-19T04:08:18;21.58;;;15.18;;
40917;SDS011;26644;50.248;19.032;2022-08-19T04:11:24;22.42;;;15.88;;
40917;SDS011;26644;50.248;19.032;2022-08-19T04:14:28;23.50;;;15.60;;
40917;SDS011;26644;50.248;19.032;2022-08-19T04:17:31;19.73;;;14.52;;
40917;SDS011;26644;50.248;19.032;2022-08-19T04:20:38;21.92;;;15.10;;
40917;SDS011;26644;50.248;19.032;2022-08-19T04:23:40;21.45;;;15.07;;
40917;SDS011;26644;50.248;19.032;2022-08-19T04:26:44;24.77;;;14.60;;
40917;SDS011;26644;50.248;19.032;2022-08-19T04:29:46;21.92;;;15.52;;
40917;SDS011;26644;50.248;19.032;2022-08-19T04:32:48;23.33;;;15.15;;
40917;SDS011;26644;50.248;19.032;2022-08-19T04:35:51;22.70;;;15.07;;
40917;SDS011;26644;50.248;19.032;2022-08-19T04:38:54;21.83;;;14.50;;
40917;SDS011;26644;50.248;19.032;2022-08-19T04:41:59;20.13;;;14.05;;
40917;SDS011;26644;50.248;19.032;2022-08-19T04:45:18;24.45;;;14.63;;
40917;SDS011;26644;50.248;19.032;2022-08-19T04:48:20;23.02;;;14.60;;
40917;SDS011;26644;50.248;19.032;2022-08-19T04:51:26;24.73;;;15.02;;
40917;SDS011;26644;50.248;19.032;2022-08-19T04:54:30;24.30;;;14.35;;
40917;SDS011;26644;50.248;19.032;2022-08-19T04:57:34;18.70;;;13.88;;
40917;SDS011;26644;50.248;19.032;2022-08-19T05:00:37;20.52;;;13.88;;
40917;SDS011;26644;50.248;19.032;2022-08-19T05:03:40;22.30;;;14.93;;
40917;SDS011;26644;50.248;19.032;2022-08-19T05:06:43;17.98;;;14.70;;
40917;SDS011;26644;50.248;19.032;2022-08-19T05:09:45;17.40;;;12.95;;
40917;SDS011;26644;50.248;19.032;2022-08-19T05:12:48;25.02;;;13.98;;
40917;SDS011;26644;50.248;19.032;2022-08-19T05:15:53;18.10;;;13.82;;
40917;SDS011;26644;50.248;19.032;2022-08-19T05:18:55;20.75;;;13.90;;
40917;SDS011;26644;50.248;19.032;2022-08-19T05:22:15;23.58;;;14.15;;
40917;SDS011;26644;50.248;19.032;2022-08-19T05:25:38;18.20;;;13.48;;
40917;SDS011;26644;50.248;19.032;2022-08-19T05:28:42;18.88;;;13.07;;
40917;SDS011;26644;50.248;19.032;2022-08-19T05:31:44;17.15;;;12.55;;
40917;SDS011;26644;50.248;19.032;2022-08-19T05:34:47;21.05;;;12.30;;
40917;SDS011;26644;50.248;19.032;2022-08-19T05:37:49;18.88;;;13.05;;
40917;SDS011;26644;50.248;19.032;2022-08-19T05:40:51;18.52;;;13.32;;
40917;SDS011;26644;50.248;19.032;2022-08-19T05:43:54;23.58;;;13.85;;
40917;SDS011;26644;50.248;19.032;2022-08-19T05:46:56;16.92;;;13.15;;
40917;SDS011;26644;50.248;19.032;2022-08-19T05:49:58;19.60;;;12.90;;
40917;SDS011;26644;50.248;19.032;2022-08-19T05:53:02;22.23;;;13.52;;
40917;SDS011;26644;50.248;19.032;2022-08-19T05:56:04;19.15;;;12.73;;
40917;SDS011;26644;50.248;19.032;2022-08-19T05:59:09;21.38;;;12.32;;
40917;SDS011;26644;50.248;19.032;2022-08-19T06:02:11;20.45;;;13.07;;
40917;SDS011;26644;50.248;19.032;2022-08-19T06:05:14;17.05;;;12.32;;
40917;SDS011;26644;50.248;19.032;2022-08-19T06:08:16;19.73;;;12.95;;
40917;SDS011;26644;50.248;19.032;2022-08-19T06:11:19;17.25;;;13.00;;
40917;SDS011;26644;50.248;19.032;2022-08-19T06:14:25;17.67;;;12.10;;
40917;SDS011;26644;50.248;19.032;2022-08-19T06:17:29;19.02;;;12.05;;
40917;SDS011;26644;50.248;19.032;2022-08-19T06:20:31;20.77;;;12.70;;
40917;SDS011;26644;50.248;19.032;2022-08-19T06:23:33;19.48;;;13.27;;
40917;SDS011;26644;50.248;19.032;2022-08-19T06:26:36;19.48;;;12.30;;
40917;SDS011;26644;50.248;19.032;2022-08-19T06:29:41;20.30;;;13.13;;
40917;SDS011;26644;50.248;19.032;2022-08-19T06:32:43;20.95;;;12.80;;
40917;SDS011;26644;50.248;19.032;2022-08-19T06:35:45;21.98;;;13.57;;
40917;SDS011;26644;50.248;19.032;2022-08-19T06:38:47;16.60;;;12.65;;
40917;SDS011;26644;50.248;19.032;2022-08-19T06:41:49;20.95;;;14.07;;
40917;SDS011;26644;50.248;19.032;2022-08-19T06:44:54;21.25;;;13.00;;
40917;SDS011;26644;50.248;19.032;2022-08-19T06:47:56;26.80;;;11.77;;
40917;SDS011;26644;50.248;19.032;2022-08-19T06:50:58;22.70;;;12.73;;
40917;SDS011;26644;50.248;19.032;2022-08-19T06:54:00;17.98;;;12.18;;
40917;SDS011;26644;50.248;19.032;2022-08-19T06:57:02;23.67;;;14.80;;
40917;SDS011;26644;50.248;19.032;2022-08-19T07:00:06;17.17;;;11.85;;
40917;SDS011;26644;50.248;19.032;2022-08-19T07:03:11;22.20;;;11.77;;
40917;SDS011;26644;50.248;19.032;2022-08-19T07:06:14;17.65;;;11.27;;
40917;SDS011;26644;50.248;19.032;2022-08-19T07:09:17;19.73;;;11.77;;
40917;SDS011;26644;50.248;19.032;2022-08-19T07:12:19;16.05;;;11.02;;
40917;SDS011;26644;50.248;19.032;2022-08-19T07:15:22;16.73;;;11.45;;
40917;SDS011;26644;50.248;19.032;2022-08-19T07:18:24;16.52;;;12.10;;
40917;SDS011;26644;50.248;19.032;2022-08-19T07:21:27;15.27;;;11.25;;
40917;SDS011;26644;50.248;19.032;2022-08-19T07:24:29;16.30;;;11.27;;
40917;SDS011;26644;50.248;19.032;2022-08-19T07:27:32;17.85;;;11.48;;
40917;SDS011;26644;50.248;19.032;2022-08-19T07:30:37;19.85;;;11.68;;
40917;SDS011;26644;50.248;19.032;2022-08-19T07:33:41;16.10;;;10.75;;
40917;SDS011;26644;50.248;19.032;2022-08-19T07:36:43;15.68;;;11.57;;
40917;SDS011;26644;50.248;19.032;2022-08-19T07:39:45;18.33;;;12.07;;
40917;SDS011;26644;50.248;19.032;2022-08-19T07:42:47;17.33;;;10.88;;
40917;SDS011;26644;50.248;19.032;2022-08-19T07:45:50;17.15;;;11.52;;
40917;SDS011;26644;50.248;19.032;2022-08-19T07:48:53;15.35;;;10.68;;
40917;SDS011;26644;50.248;19.032;2022-08-19T07:51:56;18.23;;;11.18;;
40917;SDS011;26644;50.248;19.032;2022-08-19T07:55:01;15.80;;;11.40;;
40917;SDS011;26644;50.248;19.032;2022-08-19T07:58:04;14.45;;;11.05;;
40917;SDS011;26644;50.248;19.032;2022-08-19T08:01:08;22.70;;;11.90;;
40917;SDS011;26644;50.248;19.032;2022-08-19T08:04:12;18.08;;;11.93;;
40917;SDS011;26644;50.248;19.032;2022-08-19T08:07:31;15.13;;;11.10;;
40917;SDS011;26644;50.248;19.032;2022-08-19T08:10:51;20.35;;;10.98;;
40917;SDS011;26644;50.248;19.032;2022-08-19T08:13:53;16.67;;;11.13;;
40917;SDS011;26644;50.248;19.032;2022-08-19T08:16:56;15.00;;;11.70;;
40917;SDS011;26644;50.248;19.032;2022-08-19T08:19:58;17.83;;;11.70;;
40917;SDS011;26644;50.248;19.032;2022-08-19T08:23:00;15.82;;;11.00;;
40917;SDS011;26644;50.248;19.032;2022-08-19T08:26:19;22.45;;;12.43;;
40917;SDS011;26644;50.248;19.032;2022-08-19T08:29:21;19.02;;;11.82;;
40917;SDS011;26644;50.248;19.032;2022-08-19T08:32:24;19.70;;;14.57;;
40917;SDS011;26644;50.248;19.032;2022-08-19T08:35:27;19.85;;;11.77;;
40917;SDS011;26644;50.248;19.032;2022-08-19T08:38:29;21.75;;;13.18;;
40917;SDS011;26644;50.248;19.032;2022-08-19T08:41:34;25.17;;;12.25;;
40917;SDS011;26644;50.248;19.032;2022-08-19T08:44:43;21.00;;;13.70;;
40917;SDS011;26644;50.248;19.032;2022-08-19T08:47:51;20.92;;;13.02;;
40917;SDS011;26644;50.248;19.032;2022-08-19T08:50:56;20.52;;;12.27;;
40917;SDS011;26644;50.248;19.032;2022-08-19T08:54:00;22.08;;;12.88;;
40917;SDS011;26644;50.248;19.032;2022-08-19T08:57:07;20.40;;;12.15;;
40917;SDS011;26644;50.248;19.032;2022-08-19T09:00:17;24.90;;;13.27;;
40917;SDS011;26644;50.248;19.032;2022-08-19T09:03:23;16.52;;;10.75;;
40917;SDS011;26644;50.248;19.032;2022-08-19T09:06:29;19.30;;;11.05;;
40917;SDS011;26644;50.248;19.032;2022-08-19T09:09:38;16.42;;;12.23;;
40917;SDS011;26644;50.248;19.032;2022-08-19T09:12:45;18.10;;;10.55;;
40917;SDS011;26644;50.248;19.032;2022-08-19T09:15:58;18.05;;;11.07;;
40917;SDS011;26644;50.248;19.032;2022-08-19T09:19:05;16.33;;;11.23;;
40917;SDS011;26644;50.248;19.032;2022-08-19T09:22:08;18.05;;;11.68;;
40917;SDS011;26644;50.248;19.032;2022-08-19T09:25:12;20.48;;;12.02;;
40917;SDS011;26644;50.248;19.032;2022-08-19T09:28:16;15.38;;;11.02;;
40917;SDS011;26644;50.248;19.032;2022-08-19T09:31:19;16.83;;;10.68;;
40917;SDS011;26644;50.248;19.032;2022-08-19T09:34:23;17.05;;;9.75;;
40917;SDS011;26644;50.248;19.032;2022-08-19T09:37:26;15.32;;;8.98;;
40917;SDS011;26644;50.248;19.032;2022-08-19T09:40:28;15.80;;;9.10;;
40917;SDS011;26644;50.248;19.032;2022-08-19T09:43:31;15.63;;;10.90;;
40917;SDS011;26644;50.248;19.032;2022-08-19T09:46:34;16.25;;;9.88;;
40917;SDS011;26644;50.248;19.032;2022-08-19T09:49:38;13.60;;;9.27;;
40917;SDS011;26644;50.248;19.032;2022-08-19T09:52:40;14.85;;;9.35;;
40917;SDS011;26644;50.248;19.032;2022-08-19T09:55:42;14.52;;;8.98;;
40917;SDS011;26644;50.248;19.032;2022-08-19T09:58:44;12.77;;;8.15;;
40917;SDS011;26644;50.248;19.032;2022-08-19T10:01:46;16.45;;;8.35;;
40917;SDS011;26644;50.248;19.032;2022-08-19T10:04:50;14.70;;;8.32;;
40917;SDS011;26644;50.248;19.032;2022-08-19T10:08:09;13.38;;;8.05;;
40917;SDS011;26644;50.248;19.032;2022-08-19T10:11:12;15.48;;;7.97;;
40917;SDS011;26644;50.248;19.032;2022-08-19T10:14:16;12.55;;;8.02;;
40917;SDS011;26644;50.248;19.032;2022-08-19T10:17:22;13.65;;;8.90;;
40917;SDS011;26644;50.248;19.032;2022-08-19T10:20:27;14.52;;;9.32;;
40917;SDS011;26644;50.248;19.032;2022-08-19T10:23:29;15.18;;;9.43;;
40917;SDS011;26644;50.248;19.032;2022-08-19T10:26:33;12.73;;;8.70;;
40917;SDS011;26644;50.248;19.032;2022-08-19T10:29:36;12.98;;;7.55;;
40917;SDS011;26644;50.248;19.032;2022-08-19T10:32:38;13.15;;;8.15;;
40917;SDS011;26644;50.248;19.032;2022-08-19T10:35:41;13.23;;;8.02;;
40917;SDS011;26644;50.248;19.032;2022-08-19T10:38:43;10.35;;;8.05;;
40917;SDS011;26644;50.248;19.032;2022-08-19T10:41:46;14.32;;;8.57;;
40917;SDS011;26644;50.248;19.032;2022-08-19T10:44:48;11.80;;;8.23;;
40917;SDS011;26644;50.248;19.032;2022-08-19T10:47:50;12.70;;;7.82;;
40917;SDS011;26644;50.248;19.032;2022-08-19T10:50:53;13.30;;;7.60;;
40917;SDS011;26644;50.248;19.032;2022-08-19T10:54:12;12.90;;;7.82;;
40917;SDS011;26644;50.248;19.032;2022-08-19T10:57:14;10.30;;;7.60;;
40917;SDS011;26644;50.248;19.032;2022-08-19T11:00:15;18.80;;;8.35;;
40917;SDS011;26644;50.248;19.032;2022-08-19T11:03:18;13.20;;;9.00;;
40917;SDS011;26644;50.248;19.032;2022-08-19T11:06:21;10.05;;;6.80;;
40917;SDS011;26644;50.248;19.032;2022-08-19T11:09:24;12.98;;;6.72;;
40917;SDS011;26644;50.248;19.032;2022-08-19T11:12:27;9.88;;;6.78;;
40917;SDS011;26644;50.248;19.032;2022-08-19T11:15:28;13.15;;;6.97;;
40917;SDS011;26644;50.248;19.032;2022-08-19T11:18:34;11.30;;;7.28;;
40917;SDS011;26644;50.248;19.032;2022-08-19T11:21:39;10.68;;;6.80;;
40917;SDS011;26644;50.248;19.032;2022-08-19T11:24:43;11.38;;;7.28;;
40917;SDS011;26644;50.248;19.032;2022-08-19T11:27:44;10.48;;;6.47;;
40917;SDS011;26644;50.248;19.032;2022-08-19T11:30:47;16.55;;;7.82;;
40917;SDS011;26644;50.248;19.032;2022-08-19T11:33:48;11.98;;;7.00;;
40917;SDS011;26644;50.248;19.032;2022-08-19T11:36:54;14.45;;;6.75;;
40917;SDS011;26644;50.248;19.032;2022-08-19T11:39:58;11.73;;;6.90;;
40917;SDS011;26644;50.248;19.032;2022-08-19T11:43:00;11.40;;;6.72;;
40917;SDS011;26644;50.248;19.032;2022-08-19T11:46:03;15.90;;;6.63;;
40917;SDS011;26644;50.248;19.032;2022-08-19T11:49:07;11.48;;;6.70;;
40917;SDS011;26644;50.248;19.032;2022-08-19T11:52:11;13.50;;;7.68;;
40917;SDS011;26644;50.248;19.032;2022-08-19T11:55:13;11.27;;;7.22;;
40917;SDS011;26644;50.248;19.032;2022-08-19T11:58:16;13.48;;;7.70;;
40917;SDS011;26644;50.248;19.032;2022-08-19T12:01:19;9.57;;;6.95;;
40917;SDS011;26644;50.248;19.032;2022-08-19T12:04:22;12.10;;;6.20;;
40917;SDS011;26644;50.248;19.032;2022-08-19T12:07:25;11.02;;;7.10;;
40917;SDS011;26644;50.248;19.032;2022-08-19T12:10:27;16.55;;;6.65;;
40917;SDS011;26644;50.248;19.032;2022-08-19T12:13:29;9.93;;;6.97;;
40917;SDS011;26644;50.248;19.032;2022-08-19T12:16:32;11.07;;;7.05;;
40917;SDS011;26644;50.248;19.032;2022-08-19T12:19:35;12.38;;;7.32;;
40917;SDS011;26644;50.248;19.032;2022-08-19T12:22:38;15.35;;;7.82;;
40917;SDS011;26644;50.248;19.032;2022-08-19T12:25:43;10.88;;;7.22;;
40917;SDS011;26644;50.248;19.032;2022-08-19T12:28:50;11.40;;;7.32;;
40917;SDS011;26644;50.248;19.032;2022-08-19T12:31:52;13.27;;;7.55;;
40917;SDS011;26644;50.248;19.032;2022-08-19T12:34:54;11.88;;;7.90;;
40917;SDS011;26644;50.248;19.032;2022-08-19T12:37:57;14.05;;;7.20;;
40917;SDS011;26644;50.248;19.032;2022-08-19T12:41:00;13.38;;;6.97;;
40917;SDS011;26644;50.248;19.032;2022-08-19T12:44:03;12.50;;;7.93;;
40917;SDS011;26644;50.248;19.032;2022-08-19T12:47:06;13.45;;;7.40;;
40917;SDS011;26644;50.248;19.032;2022-08-19T12:50:09;14.07;;;7.00;;
40917;SDS011;26644;50.248;19.032;2022-08-19T12:53:12;9.32;;;6.97;;
40917;SDS011;26644;50.248;19.032;2022-08-19T12:56:15;11.13;;;6.45;;
40917;SDS011;26644;50.248;19.032;2022-08-19T12:59:17;10.60;;;6.97;;
40917;SDS011;26644;50.248;19.032;2022-08-19T13:02:19;12.88;;;7.07;;
40917;SDS011;26644;50.248;19.032;2022-08-19T13:05:23;14.73;;;6.65;;
40917;SDS011;26644;50.248;19.032;2022-08-19T13:08:28;15.57;;;7.78;;
40917;SDS011;26644;50.248;19.032;2022-08-19T13:11:30;14.27;;;6.40;;
40917;SDS011;26644;50.248;19.032;2022-08-19T13:14:34;12.95;;;6.45;;
40917;SDS011;26644;50.248;19.032;2022-08-19T13:17:36;16.35;;;7.18;;
40917;SDS011;26644;50.248;19.032;2022-08-19T13:20:40;16.10;;;7.65;;
40917;SDS011;26644;50.248;19.032;2022-08-19T13:23:43;15.75;;;7.13;;
40917;SDS011;26644;50.248;19.032;2022-08-19T13:26:45;10.90;;;6.85;;
40917;SDS011;26644;50.248;19.032;2022-08-19T13:29:48;16.13;;;7.03;;
40917;SDS011;26644;50.248;19.032;2022-08-19T13:33:07;12.80;;;7.00;;
40917;SDS011;26644;50.248;19.032;2022-08-19T13:36:14;11.95;;;6.93;;
40917;SDS011;26644;50.248;19.032;2022-08-19T13:39:17;15.30;;;7.45;;
40917;SDS011;26644;50.248;19.032;2022-08-19T13:42:19;14.20;;;8.00;;
40917;SDS011;26644;50.248;19.032;2022-08-19T13:45:21;16.40;;;6.90;;
40917;SDS011;26644;50.248;19.032;2022-08-19T13:48:25;14.18;;;6.97;;
40917;SDS011;26644;50.248;19.032;2022-08-19T13:51:27;12.75;;;8.52;;
40917;SDS011;26644;50.248;19.032;2022-08-19T13:54:30;16.70;;;8.55;;
40917;SDS011;26644;50.248;19.032;2022-08-19T13:57:33;15.07;;;7.10;;
40917;SDS011;26644;50.248;19.032;2022-08-19T14:00:37;12.57;;;7.25;;
40917;SDS011;26644;50.248;19.032;2022-08-19T14:03:41;14.25;;;6.85;;
40917;SDS011;26644;50.248;19.032;2022-08-19T14:06:44;11.77;;;7.63;;
40917;SDS011;26644;50.248;19.032;2022-08-19T14:09:47;16.15;;;7.50;;
40917;SDS011;26644;50.248;19.032;2022-08-19T14:12:51;12.45;;;7.63;;
40917;SDS011;26644;50.248;19.032;2022-08-19T14:15:55;16.33;;;7.45;;
40917;SDS011;26644;50.248;19.032;2022-08-19T14:18:58;18.45;;;8.35;;
40917;SDS011;26644;50.248;19.032;2022-08-19T14:22:00;14.88;;;7.35;;
40917;SDS011;26644;50.248;19.032;2022-08-19T14:25:04;20.63;;;10.50;;
40917;SDS011;26644;50.248;19.032;2022-08-19T14:28:06;16.08;;;7.28;;
40917;SDS011;26644;50.248;19.032;2022-08-19T14:31:08;17.73;;;7.63;;
40917;SDS011;26644;50.248;19.032;2022-08-19T14:34:10;14.63;;;8.45;;
40917;SDS011;26644;50.248;19.032;2022-08-19T14:37:13;17.80;;;8.98;;
40917;SDS011;26644;50.248;19.032;2022-08-19T14:40:17;24.80;;;7.60;;
40917;SDS011;26644;50.248;19.032;2022-08-19T14:43:21;14.48;;;8.48;;
40917;SDS011;26644;50.248;19.032;2022-08-19T14:46:24;21.85;;;10.20;;
40917;SDS011;26644;50.248;19.032;2022-08-19T14:49:28;14.98;;;8.82;;
40917;SDS011;26644;50.248;19.032;2022-08-19T14:52:29;12.70;;;6.85;;
40917;SDS011;26644;50.248;19.032;2022-08-19T14:55:33;17.90;;;7.60;;
40917;SDS011;26644;50.248;19.032;2022-08-19T14:58:35;15.65;;;7.85;;
40917;SDS011;26644;50.248;19.032;2022-08-19T15:01:37;19.55;;;9.50;;
40917;SDS011;26644;50.248;19.032;2022-08-19T15:04:39;17.75;;;9.30;;
40917;SDS011;26644;50.248;19.032;2022-08-19T15:07:41;15.55;;;8.95;;
40917;SDS011;26644;50.248;19.032;2022-08-19T15:10:45;19.23;;;10.20;;
40917;SDS011;26644;50.248;19.032;2022-08-19T15:13:48;21.98;;;11.27;;
40917;SDS011;26644;50.248;19.032;2022-08-19T15:16:50;17.33;;;8.32;;
40917;SDS011;26644;50.248;19.032;2022-08-19T15:19:52;22.00;;;10.15;;
40917;SDS011;26644;50.248;19.032;2022-08-19T15:22:53;12.13;;;8.38;;
40917;SDS011;26644;50.248;19.032;2022-08-19T15:25:57;12.18;;;7.80;;
40917;SDS011;26644;50.248;19.032;2022-08-19T15:28:59;18.13;;;7.60;;
40917;SDS011;26644;50.248;19.032;2022-08-19T15:32:01;19.60;;;8.73;;
40917;SDS011;26644;50.248;19.032;2022-08-19T15:35:06;15.90;;;8.45;;
40917;SDS011;26644;50.248;19.032;2022-08-19T15:38:08;15.52;;;8.68;;
40917;SDS011;26644;50.248;19.032;2022-08-19T15:41:16;18.13;;;9.13;;
40917;SDS011;26644;50.248;19.032;2022-08-19T15:44:26;14.60;;;9.10;;
40917;SDS011;26644;50.248;19.032;2022-08-19T15:47:28;16.92;;;8.68;;
40917;SDS011;26644;50.248;19.032;2022-08-19T15:50:31;16.58;;;10.98;;
40917;SDS011;26644;50.248;19.032;2022-08-19T15:53:33;17.42;;;7.88;;
40917;SDS011;26644;50.248;19.032;2022-08-19T15:56:37;15.00;;;8.30;;
40917;SDS011;26644;50.248;19.032;2022-08-19T15:59:56;15.82;;;8.50;;
40917;SDS011;26644;50.248;19.032;2022-08-19T16:03:16;12.23;;;7.28;;
40917;SDS011;26644;50.248;19.032;2022-08-19T16:06:35;15.13;;;7.25;;
40917;SDS011;26644;50.248;19.032;2022-08-19T16:09:37;14.25;;;8.20;;
40917;SDS011;26644;50.248;19.032;2022-08-19T16:12:40;16.08;;;7.57;;
40917;SDS011;26644;50.248;19.032;2022-08-19T16:15:42;14.57;;;7.53;;
40917;SDS011;26644;50.248;19.032;2022-08-19T16:18:44;18.90;;;10.27;;
40917;SDS011;26644;50.248;19.032;2022-08-19T16:21:47;20.92;;;9.85;;
40917;SDS011;26644;50.248;19.032;2022-08-19T16:24:50;18.67;;;8.90;;
40917;SDS011;26644;50.248;19.032;2022-08-19T16:27:53;17.50;;;8.88;;
40917;SDS011;26644;50.248;19.032;2022-08-19T16:30:55;18.15;;;8.52;;
40917;SDS011;26644;50.248;19.032;2022-08-19T16:33:57;14.48;;;8.43;;
40917;SDS011;26644;50.248;19.032;2022-08-19T16:36:59;21.45;;;9.98;;
40917;SDS011;26644;50.248;19.032;2022-08-19T16:40:01;19.65;;;8.00;;
40917;SDS011;26644;50.248;19.032;2022-08-19T16:43:06;15.07;;;8.05;;
40917;SDS011;26644;50.248;19.032;2022-08-19T16:46:09;16.55;;;7.72;;
40917;SDS011;26644;50.248;19.032;2022-08-19T16:49:11;17.30;;;8.07;;
40917;SDS011;26644;50.248;19.032;2022-08-19T16:52:14;16.02;;;7.90;;
40917;SDS011;26644;50.248;19.032;2022-08-19T16:55:16;20.35;;;8.07;;
40917;SDS011;26644;50.248;19.032;2022-08-19T16:58:20;17.98;;;8.35;;
40917;SDS011;26644;50.248;19.032;2022-08-19T17:01:24;17.20;;;7.93;;
40917;SDS011;26644;50.248;19.032;2022-08-19T17:04:27;19.65;;;8.00;;
40917;SDS011;26644;50.248;19.032;2022-08-19T17:07:29;14.13;;;8.60;;
40917;SDS011;26644;50.248;19.032;2022-08-19T17:10:31;13.43;;;8.68;;
40917;SDS011;26644;50.248;19.032;2022-08-19T17:13:35;13.77;;;8.13;;
40917;SDS011;26644;50.248;19.032;2022-08-19T17:16:37;16.70;;;9.30;;
40917;SDS011;26644;50.248;19.032;2022-08-19T17:19:39;13.70;;;9.15;;
40917;SDS011;26644;50.248;19.032;2022-08-19T17:22:42;21.13;;;9.55;;
40917;SDS011;26644;50.248;19.032;2022-08-19T17:25:44;17.70;;;11.43;;
40917;SDS011;26644;50.248;19.032;2022-08-19T17:28:49;20.92;;;11.65;;
40917;SDS011;26644;50.248;19.032;2022-08-19T17:31:52;19.10;;;9.70;;
40917;SDS011;26644;50.248;19.032;2022-08-19T17:34:54;18.83;;;8.95;;
40917;SDS011;26644;50.248;19.032;2022-08-19T17:37:56;20.77;;;10.50;;
40917;SDS011;26644;50.248;19.032;2022-08-19T17:40:58;20.23;;;9.23;;
40917;SDS011;26644;50.248;19.032;2022-08-19T17:44:05;31.35;;;9.48;;